createdAt,value
2019-02-15T00:00:10.447Z,12.40
2019-02-15T00:02:38.893Z,11.43
2019-02-15T00:05:07.608Z,13.67
2019-02-15T00:07:36.057Z,13.73
2019-02-15T00:10:05.508Z,11.43
2019-02-15T00:12:33.972Z,12.03
2019-02-15T00:15:02.372Z,13.53
2019-02-15T00:17:50.619Z,11.33
2019-02-15T00:20:23.597Z,11.70
2019-02-15T00:22:52.300Z,10.70
2019-02-15T00:25:20.727Z,12.93
2019-02-15T00:27:49.186Z,13.10
2019-02-15T00:30:17.628Z,13.27
2019-02-15T00:32:46.084Z,12.93
2019-02-15T00:35:14.578Z,13.80
2019-02-15T00:37:43.019Z,13.47
2019-02-15T00:40:11.450Z,15.03
2019-02-15T00:42:39.880Z,11.17
2019-02-15T00:45:10.062Z,12.23
2019-02-15T00:47:48.768Z,13.43
2019-02-15T00:50:28.096Z,13.10
2019-02-15T00:53:14.760Z,14.10
2019-02-15T00:55:44.918Z,13.63
2019-02-15T00:58:20.982Z,15.27
2019-02-15T01:00:59.577Z,17.17
2019-02-15T01:03:32.595Z,13.53
2019-02-15T01:06:02.672Z,10.83
2019-02-15T01:08:38.640Z,12.17
2019-02-15T01:11:08.703Z,10.77
2019-02-15T01:13:37.411Z,10.10
2019-02-15T01:16:06.007Z,13.60
2019-02-15T01:18:34.452Z,12.77
2019-02-15T01:21:03.230Z,12.53
2019-02-15T01:23:31.683Z,9.27
2019-02-15T01:26:17.978Z,10.60
2019-02-15T01:29:04.480Z,9.40
2019-02-15T01:31:49.827Z,9.13
2019-02-15T01:34:36.177Z,10.90
2019-02-15T01:37:12.000Z,8.83
2019-02-15T01:39:42.063Z,9.83
2019-02-15T01:42:12.170Z,10.03
2019-02-15T01:44:42.300Z,10.40
2019-02-15T01:47:12.640Z,12.57
2019-02-15T01:49:41.091Z,14.23
2019-02-15T01:52:09.555Z,12.30
2019-02-15T01:54:38.046Z,13.80
2019-02-15T01:57:06.536Z,13.73
2019-02-15T01:59:34.991Z,11.77
2019-02-15T02:02:03.567Z,13.53
2019-02-15T02:04:32.106Z,13.33
2019-02-15T02:07:00.588Z,10.13
2019-02-15T02:09:29.037Z,10.63
2019-02-15T02:11:57.496Z,11.43
2019-02-15T02:14:26.073Z,13.73
2019-02-15T02:16:54.512Z,12.80
2019-02-15T02:19:23.014Z,10.93
2019-02-15T02:21:51.487Z,10.53
2019-02-15T02:24:20.019Z,14.10
2019-02-15T02:26:48.477Z,18.80
2019-02-15T02:29:18.464Z,17.90
2019-02-15T02:31:46.919Z,18.43
2019-02-15T02:34:15.380Z,18.27
2019-02-15T02:36:48.905Z,20.80
2019-02-15T02:39:17.311Z,17.83
2019-02-15T02:41:45.770Z,18.97
2019-02-15T02:44:14.279Z,18.33
2019-02-15T02:46:45.952Z,19.13
2019-02-15T02:49:14.390Z,18.50
2019-02-15T02:51:42.777Z,12.93
2019-02-15T02:54:11.209Z,19.47
2019-02-15T02:56:39.696Z,16.50
2019-02-15T02:59:08.121Z,17.47
2019-02-15T03:01:36.542Z,20.33
2019-02-15T03:04:04.965Z,20.53
2019-02-15T03:06:33.396Z,19.17
2019-02-15T03:09:01.815Z,23.03
2019-02-15T03:11:30.217Z,16.03
2019-02-15T03:13:58.657Z,18.73
2019-02-15T03:16:27.061Z,15.90
2019-02-15T03:18:55.489Z,14.57
2019-02-15T03:21:23.912Z,18.00
2019-02-15T03:23:52.391Z,15.90
2019-02-15T03:26:20.841Z,19.40
2019-02-15T03:28:49.274Z,17.60
2019-02-15T03:31:17.778Z,16.30
2019-02-15T03:33:46.304Z,19.13
2019-02-15T03:36:28.440Z,17.83
2019-02-15T03:38:58.542Z,20.60
2019-02-15T03:41:28.538Z,17.87
2019-02-15T03:43:57.051Z,17.73
2019-02-15T03:46:25.836Z,18.80
2019-02-15T03:48:54.280Z,19.63
2019-02-15T03:51:22.737Z,17.33
2019-02-15T03:53:51.201Z,17.90
2019-02-15T03:56:19.635Z,18.97
2019-02-15T03:58:48.101Z,20.03
2019-02-15T04:01:16.640Z,19.53
2019-02-15T04:03:45.096Z,19.07
2019-02-15T04:06:13.529Z,18.03
2019-02-15T04:08:41.986Z,15.97
2019-02-15T04:11:10.517Z,13.73
2019-02-15T04:13:38.993Z,18.30
2019-02-15T04:16:07.390Z,19.60
2019-02-15T04:18:35.838Z,17.30
2019-02-15T04:21:04.315Z,18.17
2019-02-15T04:23:32.741Z,19.37
2019-02-15T04:26:01.171Z,19.00
2019-02-15T04:28:29.596Z,19.53
2019-02-15T04:30:58.075Z,14.67
2019-02-15T04:33:26.524Z,16.57
2019-02-15T04:35:54.952Z,18.37
2019-02-15T04:38:23.367Z,17.10
2019-02-15T04:40:51.802Z,17.37
2019-02-15T04:43:20.231Z,15.70
2019-02-15T04:45:48.675Z,16.40
2019-02-15T04:48:17.166Z,18.27
2019-02-15T04:50:45.630Z,18.13
2019-02-15T04:53:14.119Z,20.67
2019-02-15T04:55:42.605Z,18.20
2019-02-15T04:58:11.151Z,17.13
2019-02-15T05:00:39.626Z,17.83
2019-02-15T05:03:08.120Z,18.77
2019-02-15T05:05:36.662Z,19.77
2019-02-15T05:08:05.177Z,21.03
2019-02-15T05:10:33.655Z,18.83
2019-02-15T05:13:02.111Z,20.30
2019-02-15T05:15:30.648Z,19.77
2019-02-15T05:17:59.097Z,22.03
2019-02-15T05:20:27.605Z,19.60
2019-02-15T05:22:56.141Z,18.20
2019-02-15T05:25:24.639Z,20.03
2019-02-15T05:27:53.076Z,18.50
2019-02-15T05:30:21.582Z,18.93
2019-02-15T05:32:50.089Z,18.50
2019-02-15T05:35:18.579Z,17.73
2019-02-15T05:37:49.791Z,22.13
2019-02-15T05:40:18.244Z,17.87
2019-02-15T05:42:46.722Z,20.37
2019-02-15T05:45:15.221Z,21.47
2019-02-15T05:47:43.640Z,19.67
2019-02-15T05:50:12.063Z,18.13
2019-02-15T05:52:40.484Z,20.30
2019-02-15T05:55:09.270Z,20.73
2019-02-15T05:57:37.685Z,19.03
2019-02-15T06:00:09.444Z,20.83
2019-02-15T06:02:37.893Z,17.97
2019-02-15T06:05:08.659Z,21.33
2019-02-15T06:07:37.063Z,20.10
2019-02-15T06:10:07.853Z,19.20
2019-02-15T06:12:36.275Z,23.23
2019-02-15T06:15:14.848Z,17.60
2019-02-15T06:17:35.590Z,21.03
2019-02-15T06:20:04.407Z,22.10
2019-02-15T06:22:32.808Z,19.37
2019-02-15T06:25:01.242Z,18.33
2019-02-15T06:27:29.672Z,22.23
2019-02-15T06:29:58.111Z,18.50
2019-02-15T06:32:26.522Z,21.10
2019-02-15T06:34:54.944Z,21.73
2019-02-15T06:37:23.373Z,25.37
2019-02-15T06:39:51.830Z,25.60
2019-02-15T06:42:20.239Z,19.07
2019-02-15T06:44:48.679Z,24.47
2019-02-15T06:47:17.116Z,21.63
2019-02-15T06:49:45.584Z,23.53
2019-02-15T06:52:14.050Z,21.97
2019-02-15T06:54:42.434Z,27.27
2019-02-15T06:57:10.863Z,20.20
2019-02-15T06:59:55.804Z,22.00
2019-02-15T07:02:35.107Z,21.13
2019-02-15T07:05:05.435Z,20.80
2019-02-15T07:07:33.847Z,16.33
2019-02-15T07:10:02.256Z,16.13
2019-02-15T07:12:30.692Z,15.50
2019-02-15T07:14:59.107Z,13.60
2019-02-15T07:17:27.530Z,13.07
2019-02-15T07:19:55.944Z,12.80
2019-02-15T07:22:24.371Z,13.47
2019-02-15T07:24:52.803Z,13.87
2019-02-15T07:27:21.246Z,11.27
2019-02-15T07:29:49.650Z,13.57
2019-02-15T07:32:18.094Z,14.17
2019-02-15T07:34:46.498Z,16.80
2019-02-15T07:37:14.939Z,13.67
2019-02-15T07:39:43.375Z,16.63
2019-02-15T07:42:11.810Z,11.23
2019-02-15T07:44:40.269Z,13.50
2019-02-15T07:47:08.717Z,15.57
2019-02-15T07:49:37.124Z,13.27
2019-02-15T07:52:05.556Z,13.23
2019-02-15T07:54:33.957Z,12.97
2019-02-15T07:57:02.407Z,14.20
2019-02-15T07:59:30.899Z,11.27
2019-02-15T08:02:01.942Z,13.43
2019-02-15T08:04:29.505Z,13.87
2019-02-15T08:06:57.927Z,11.37
2019-02-15T08:09:26.352Z,12.40
2019-02-15T08:11:54.798Z,11.83
2019-02-15T08:14:23.207Z,12.23
2019-02-15T08:16:51.611Z,10.83
2019-02-15T08:19:21.241Z,14.07
2019-02-15T08:21:49.932Z,13.20
2019-02-15T08:24:18.332Z,10.73
2019-02-15T08:26:46.803Z,15.07
2019-02-15T08:29:15.221Z,12.10
2019-02-15T08:31:43.631Z,11.47
2019-02-15T08:34:12.036Z,14.00
2019-02-15T08:36:40.457Z,12.37
2019-02-15T08:39:08.860Z,11.17
2019-02-15T08:41:37.259Z,12.73
2019-02-15T08:44:05.666Z,12.63
2019-02-15T08:46:34.101Z,12.33
2019-02-15T08:49:02.495Z,13.03
2019-02-15T08:51:32.828Z,11.40
2019-02-15T08:54:01.023Z,11.47
2019-02-15T08:56:29.451Z,14.10
2019-02-15T08:58:57.844Z,13.07
2019-02-15T09:01:26.275Z,15.63
2019-02-15T09:03:54.687Z,13.10
2019-02-15T09:06:23.130Z,12.37
2019-02-15T09:08:51.539Z,14.47
2019-02-15T09:11:19.964Z,15.20
2019-02-15T09:13:48.382Z,13.50
2019-02-15T09:16:16.793Z,15.33
2019-02-15T09:18:45.234Z,11.53
2019-02-15T09:21:13.647Z,15.33
2019-02-15T09:23:42.115Z,17.20
2019-02-15T09:26:18.058Z,15.50
2019-02-15T09:28:51.580Z,13.37
2019-02-15T09:31:19.987Z,12.87
2019-02-15T09:33:48.425Z,15.33
2019-02-15T09:36:16.854Z,13.00
2019-02-15T09:38:45.324Z,15.20
2019-02-15T09:41:13.727Z,14.80
2019-02-15T09:43:42.155Z,16.43
2019-02-15T09:46:19.273Z,14.90
2019-02-15T09:48:40.788Z,16.87
2019-02-15T09:51:09.197Z,16.23
2019-02-15T09:53:37.625Z,15.17
2019-02-15T09:56:06.046Z,19.83
2019-02-15T09:58:34.493Z,16.53
2019-02-15T10:01:02.907Z,15.30
2019-02-15T10:03:31.380Z,12.93
2019-02-15T10:05:59.845Z,13.87
2019-02-15T10:08:28.256Z,14.93
2019-02-15T10:10:56.685Z,11.20
2019-02-15T10:13:25.086Z,16.60
2019-02-15T10:15:53.511Z,11.50
2019-02-15T10:18:21.927Z,9.53
2019-02-15T10:20:50.355Z,11.30
2019-02-15T10:23:18.772Z,12.13
2019-02-15T10:25:47.177Z,9.43
2019-02-15T10:28:15.585Z,8.53
2019-02-15T10:30:44.023Z,9.63
2019-02-15T10:33:12.426Z,8.53
2019-02-15T10:35:40.876Z,10.43
2019-02-15T10:38:09.271Z,10.40
2019-02-15T10:40:39.261Z,8.83
2019-02-15T10:43:07.669Z,11.23
2019-02-15T10:45:36.079Z,9.47
2019-02-15T10:48:04.560Z,10.70
2019-02-15T10:50:33.063Z,11.70
2019-02-15T10:53:01.485Z,11.07
2019-02-15T10:55:29.896Z,9.17
2019-02-15T10:57:58.300Z,9.10
2019-02-15T11:00:26.856Z,9.43
2019-02-15T11:02:56.862Z,9.67
2019-02-15T11:05:25.287Z,9.77
2019-02-15T11:07:55.454Z,10.77
2019-02-15T11:10:23.962Z,8.90
2019-02-15T11:12:52.358Z,8.83
2019-02-15T11:15:20.876Z,9.87
2019-02-15T11:17:49.322Z,9.47
2019-02-15T11:20:18.275Z,8.90
2019-02-15T11:22:46.864Z,10.77
2019-02-15T11:25:15.283Z,9.63
2019-02-15T11:28:00.094Z,10.43
2019-02-15T11:30:28.507Z,8.87
2019-02-15T11:32:56.931Z,10.57
2019-02-15T11:35:25.359Z,9.93
2019-02-15T11:37:53.851Z,14.83
2019-02-15T11:40:22.243Z,9.80
2019-02-15T11:42:50.667Z,7.57
2019-02-15T11:45:19.063Z,6.70
2019-02-15T11:47:47.507Z,8.30
2019-02-15T11:50:15.903Z,8.07
2019-02-15T11:52:44.321Z,9.47
2019-02-15T11:55:12.722Z,6.33
2019-02-15T11:57:41.203Z,9.70
2019-02-15T12:00:18.422Z,8.80
2019-02-15T12:02:46.555Z,10.50
2019-02-15T12:05:15.011Z,8.30
2019-02-15T12:07:43.479Z,8.83
2019-02-15T12:10:12.026Z,7.80
2019-02-15T12:12:40.464Z,8.87
2019-02-15T12:15:10.672Z,10.00
2019-02-15T12:17:39.092Z,7.00
2019-02-15T12:20:15.094Z,8.27
2019-02-15T12:22:43.499Z,9.27
2019-02-15T12:25:12.190Z,9.77
2019-02-15T12:27:40.712Z,8.20
2019-02-15T12:30:13.776Z,7.20
2019-02-15T12:32:42.221Z,10.43
2019-02-15T12:35:11.196Z,7.87
2019-02-15T12:37:39.626Z,10.63
2019-02-15T12:40:11.835Z,9.43
2019-02-15T12:42:40.271Z,6.67
2019-02-15T12:45:10.966Z,7.87
2019-02-15T12:47:39.401Z,6.53
2019-02-15T12:50:10.747Z,8.57
2019-02-15T12:52:39.175Z,6.80
2019-02-15T12:55:07.725Z,5.23
2019-02-15T12:57:36.259Z,6.53
2019-02-15T13:00:07.740Z,5.93
2019-02-15T13:02:36.191Z,7.63
2019-02-15T13:05:06.362Z,6.63
2019-02-15T13:07:34.759Z,7.03
2019-02-15T13:10:03.986Z,7.43
2019-02-15T13:12:32.402Z,5.33
2019-02-15T13:15:00.813Z,6.90
2019-02-15T13:17:29.230Z,7.17
2019-02-15T13:19:57.643Z,5.47
2019-02-15T13:22:26.087Z,6.30
2019-02-15T13:24:54.542Z,6.10
2019-02-15T13:27:23.033Z,3.30
2019-02-15T13:29:51.488Z,3.87
2019-02-15T13:32:19.925Z,3.70
2019-02-15T13:34:48.355Z,1.97
2019-02-15T13:37:16.772Z,3.23
2019-02-15T13:39:45.196Z,1.97
2019-02-15T13:42:13.634Z,3.50
2019-02-15T13:44:42.077Z,2.23
2019-02-15T13:47:10.459Z,4.80
2019-02-15T13:49:38.873Z,3.37
2019-02-15T13:52:07.319Z,1.87
2019-02-15T13:54:38.541Z,4.13
2019-02-15T13:57:07.268Z,3.10
2019-02-15T13:59:35.714Z,1.53
2019-02-15T14:02:05.386Z,1.80
2019-02-15T14:04:35.514Z,4.03
2019-02-15T14:07:07.030Z,1.30
2019-02-15T14:09:37.913Z,2.67
2019-02-15T14:12:06.429Z,2.60
2019-02-15T14:14:34.917Z,1.97
2019-02-15T14:17:03.398Z,1.83
2019-02-15T14:19:31.887Z,2.57
2019-02-15T14:22:41.340Z,1.70
2019-02-15T14:25:11.212Z,2.03
2019-02-15T14:27:39.624Z,2.17
2019-02-15T14:30:17.445Z,1.57
2019-02-15T14:32:49.485Z,2.03
2019-02-15T14:35:17.894Z,1.63
2019-02-15T14:37:47.988Z,1.93
2019-02-15T14:40:16.466Z,2.57
2019-02-15T14:42:44.946Z,2.43
2019-02-15T14:45:13.976Z,3.90
2019-02-15T14:47:42.458Z,2.13
2019-02-15T14:50:11.678Z,3.27
2019-02-15T14:52:40.191Z,8.07
2019-02-15T14:55:09.988Z,5.03
2019-02-15T14:57:38.527Z,4.43
2019-02-15T15:00:14.727Z,9.10
2019-02-15T15:02:43.169Z,6.40
2019-02-15T15:05:13.754Z,18.43
2019-02-15T15:07:58.746Z,16.17
2019-02-15T15:10:28.398Z,8.80
2019-02-15T15:12:58.348Z,10.47
2019-02-15T15:15:27.646Z,7.57
2019-02-15T15:18:06.034Z,8.20
2019-02-15T15:20:27.782Z,9.33
2019-02-15T15:22:56.171Z,7.63
2019-02-15T15:25:24.681Z,11.00
2019-02-15T15:27:53.217Z,5.50
2019-02-15T15:30:21.642Z,8.57
2019-02-15T15:32:50.248Z,8.63
2019-02-15T15:35:20.327Z,5.70
2019-02-15T15:37:48.835Z,6.53
2019-02-15T15:40:19.508Z,6.63
2019-02-15T15:42:48.912Z,6.83
2019-02-15T15:45:17.317Z,10.43
2019-02-15T15:47:49.817Z,8.20
2019-02-15T15:50:19.840Z,9.57
2019-02-15T15:52:48.227Z,9.73
2019-02-15T15:55:17.721Z,7.97
2019-02-15T15:57:46.419Z,8.93
2019-02-15T16:00:17.605Z,4.73
2019-02-15T16:02:45.991Z,5.53
2019-02-15T16:05:14.471Z,5.50
2019-02-15T16:07:43.772Z,4.57
2019-02-15T16:10:13.874Z,4.93
2019-02-15T16:12:42.287Z,6.07
2019-02-15T16:15:14.430Z,5.90
2019-02-15T16:17:42.837Z,4.50
2019-02-15T16:20:12.308Z,7.23
2019-02-15T16:22:40.720Z,5.27
2019-02-15T16:25:09.902Z,6.03
2019-02-15T16:27:38.299Z,7.10
2019-02-15T16:30:09.832Z,5.37
2019-02-15T16:32:38.277Z,6.10
2019-02-15T16:35:07.194Z,5.03
2019-02-15T16:37:35.589Z,8.57
2019-02-15T16:40:06.178Z,6.50
2019-02-15T16:42:34.602Z,5.70
2019-02-15T16:45:03.602Z,5.60
2019-02-15T16:47:32.012Z,7.30
2019-02-15T16:50:00.496Z,5.20
2019-02-15T16:52:28.890Z,6.03
2019-02-15T16:54:57.339Z,7.07
2019-02-15T16:57:25.741Z,6.83
2019-02-15T16:59:54.235Z,8.13
2019-02-15T17:02:22.659Z,9.03
2019-02-15T17:04:51.141Z,7.30
2019-02-15T17:07:19.611Z,6.63
2019-02-15T17:09:48.048Z,7.87
2019-02-15T17:12:16.481Z,7.73
2019-02-15T17:14:44.943Z,9.57
2019-02-15T17:17:13.364Z,11.03
2019-02-15T17:19:41.767Z,10.17
2019-02-15T17:22:10.207Z,10.37
2019-02-15T17:24:38.620Z,11.20
2019-02-15T17:27:07.051Z,13.20
2019-02-15T17:29:35.448Z,14.43
2019-02-15T17:32:03.896Z,11.43
2019-02-15T17:34:32.296Z,10.83
2019-02-15T17:37:00.769Z,9.37
2019-02-15T17:39:29.170Z,15.70
2019-02-15T17:41:57.639Z,11.43
2019-02-15T17:44:26.031Z,9.43
2019-02-15T17:46:54.515Z,13.80
2019-02-15T17:49:22.907Z,9.87
2019-02-15T17:51:51.435Z,9.47
2019-02-15T17:54:19.845Z,11.80
2019-02-15T17:56:48.318Z,13.00
2019-02-15T17:59:16.703Z,13.07
2019-02-15T18:01:45.169Z,14.47
2019-02-15T18:04:13.655Z,14.50
2019-02-15T18:06:42.098Z,11.10
2019-02-15T18:09:10.575Z,12.77
2019-02-15T18:11:39.014Z,13.40
2019-02-15T18:14:07.426Z,13.47
2019-02-15T18:16:35.874Z,10.87
2019-02-15T18:19:09.846Z,12.83
2019-02-15T18:21:34.471Z,15.87
2019-02-15T18:24:02.967Z,16.40
2019-02-15T18:26:31.397Z,16.77
2019-02-15T18:28:59.840Z,14.70
2019-02-15T18:31:28.345Z,15.13
2019-02-15T18:33:56.756Z,12.87
2019-02-15T18:36:25.177Z,12.97
2019-02-15T18:38:53.573Z,14.23
2019-02-15T18:41:22.002Z,11.37
2019-02-15T18:43:50.388Z,12.33
2019-02-15T18:46:18.822Z,13.10
2019-02-15T18:48:47.227Z,10.43
2019-02-15T18:51:15.662Z,9.90
2019-02-15T18:53:44.127Z,12.83
2019-02-15T18:56:12.587Z,13.93
2019-02-15T18:58:41.011Z,11.53
2019-02-15T19:01:09.430Z,12.47
2019-02-15T19:03:37.829Z,10.20
2019-02-15T19:06:06.264Z,11.90
2019-02-15T19:08:34.659Z,12.97
2019-02-15T19:11:03.327Z,15.57
2019-02-15T19:13:31.736Z,12.70
2019-02-15T19:16:00.187Z,11.00
2019-02-15T19:18:28.590Z,11.70
2019-02-15T19:20:57.111Z,10.87
2019-02-15T19:23:25.515Z,13.17
2019-02-15T19:25:53.926Z,11.13
2019-02-15T19:28:22.348Z,10.83
2019-02-15T19:30:50.754Z,12.00
2019-02-15T19:33:19.183Z,17.27
2019-02-15T19:35:47.621Z,12.73
2019-02-15T19:38:16.118Z,13.73
2019-02-15T19:40:44.498Z,11.30
2019-02-15T19:43:13.713Z,16.40
2019-02-15T19:45:42.662Z,12.70
2019-02-15T19:48:11.149Z,13.67
2019-02-15T19:50:39.568Z,12.67
2019-02-15T19:53:07.997Z,12.80
2019-02-15T19:55:36.394Z,13.33
2019-02-15T19:58:04.829Z,18.77
2019-02-15T20:00:35.423Z,35.80
2019-02-15T20:03:03.409Z,20.53
2019-02-15T20:05:31.800Z,39.97
2019-02-15T20:08:00.231Z,13.80
2019-02-15T20:10:29.099Z,13.43
2019-02-15T20:12:57.520Z,13.20
2019-02-15T20:15:25.917Z,14.00
2019-02-15T20:17:54.363Z,15.87
2019-02-15T20:20:22.760Z,12.13
2019-02-15T20:22:51.220Z,25.60
2019-02-15T20:25:19.657Z,13.47
2019-02-15T20:27:48.091Z,13.07
2019-02-15T20:30:21.919Z,30.93
2019-02-15T20:32:51.892Z,18.90
2019-02-15T20:35:20.305Z,12.00
2019-02-15T20:37:48.734Z,16.70
2019-02-15T20:40:17.223Z,22.57
2019-02-15T20:42:45.684Z,20.70
2019-02-15T20:45:20.180Z,14.20
2019-02-15T20:47:48.657Z,17.53
2019-02-15T20:50:20.640Z,24.57
2019-02-15T20:52:49.150Z,12.03
2019-02-15T20:55:19.306Z,14.13
2019-02-15T20:57:48.076Z,20.33
2019-02-15T21:00:25.091Z,15.87
2019-02-15T21:02:53.584Z,21.13
2019-02-15T21:05:21.987Z,24.27
2019-02-15T21:07:50.416Z,15.70
2019-02-15T21:10:18.822Z,18.23
2019-02-15T21:12:47.846Z,18.73
2019-02-15T21:15:16.403Z,14.73
2019-02-15T21:17:44.911Z,13.97
2019-02-15T21:20:15.179Z,14.00
2019-02-15T21:22:43.718Z,14.17
2019-02-15T21:25:16.684Z,12.70
2019-02-15T21:27:45.186Z,18.33
2019-02-15T21:30:16.127Z,16.03
2019-02-15T21:32:44.586Z,12.57
2019-02-15T21:35:13.051Z,13.53
2019-02-15T21:37:44.316Z,14.67
2019-02-15T21:40:15.048Z,25.83
2019-02-15T21:43:03.683Z,21.33
2019-02-15T21:45:32.171Z,15.30
2019-02-15T21:48:02.222Z,13.90
2019-02-15T21:50:32.372Z,12.93
2019-02-15T21:53:02.437Z,11.90
2019-02-15T21:55:30.990Z,12.17
2019-02-15T21:58:01.744Z,13.03
2019-02-15T22:00:29.725Z,10.97
2019-02-15T22:02:58.126Z,15.77
2019-02-15T22:05:26.631Z,25.57
2019-02-15T22:07:55.163Z,46.87
2019-02-15T22:10:23.650Z,35.20
2019-02-15T22:12:52.234Z,20.93
2019-02-15T22:15:20.702Z,42.93
2019-02-15T22:17:49.123Z,19.77
2019-02-15T22:20:26.233Z,37.50
2019-02-15T22:22:48.156Z,26.47
2019-02-15T22:25:16.571Z,26.60
2019-02-15T22:27:45.008Z,13.93
2019-02-15T22:30:15.215Z,13.70
2019-02-15T22:32:43.648Z,15.90
2019-02-15T22:35:12.138Z,22.40
2019-02-15T22:37:40.592Z,46.50
2019-02-15T22:40:38.316Z,45.13
2019-02-15T22:43:09.808Z,51.70
2019-02-15T22:45:38.247Z,38.13
2019-02-15T22:48:06.686Z,35.93
2019-02-15T22:50:36.337Z,11.07
2019-02-15T22:53:05.064Z,13.40
2019-02-15T22:55:33.475Z,41.00
2019-02-15T22:58:01.923Z,31.73
2019-02-15T23:00:54.188Z,19.70
2019-02-15T23:03:27.195Z,22.97
2019-02-15T23:05:55.835Z,26.57
2019-02-15T23:08:24.331Z,11.43
2019-02-15T23:10:52.734Z,12.93
2019-02-15T23:13:21.238Z,29.93
2019-02-15T23:15:49.711Z,13.83
2019-02-15T23:18:19.081Z,13.17
2019-02-15T23:20:48.096Z,13.13
2019-02-15T23:23:16.583Z,10.20
2019-02-15T23:25:44.983Z,11.73
2019-02-15T23:28:13.426Z,11.97
2019-02-15T23:30:41.837Z,12.03
2019-02-15T23:33:10.276Z,11.63
2019-02-15T23:35:38.658Z,11.50
2019-02-15T23:38:07.087Z,13.17
2019-02-15T23:40:35.522Z,13.83
2019-02-15T23:43:04.131Z,11.93
2019-02-15T23:45:32.565Z,12.60
2019-02-15T23:48:01.001Z,13.53
2019-02-15T23:50:29.415Z,12.63
2019-02-15T23:52:57.853Z,12.87
2019-02-15T23:55:26.315Z,10.53
2019-02-15T23:57:54.775Z,13.47
